sensor_id;sensor_type;location;lat;lon;timestamp;P1;durP1;ratioP1;P2;durP2;ratioP2
14847;SDS011;7516;43.570;1.448;2022-12-07T00:00:55;18.23;;;12.03;;
14847;SDS011;7516;43.570;1.448;2022-12-07T00:03:30;17.90;;;11.87;;
14847;SDS011;7516;43.570;1.448;2022-12-07T00:05:57;16.00;;;11.70;;
14847;SDS011;7516;43.570;1.448;2022-12-07T00:08:25;15.40;;;11.30;;
14847;SDS011;7516;43.570;1.448;2022-12-07T00:10:53;17.67;;;11.30;;
14847;SDS011;7516;43.570;1.448;2022-12-07T00:13:20;17.37;;;11.57;;
14847;SDS011;7516;43.570;1.448;2022-12-07T00:15:48;15.50;;;10.80;;
14847;SDS011;7516;43.570;1.448;2022-12-07T00:18:17;15.10;;;10.40;;
14847;SDS011;7516;43.570;1.448;2022-12-07T00:20:44;16.63;;;11.23;;
14847;SDS011;7516;43.570;1.448;2022-12-07T00:23:12;12.97;;;9.60;;
14847;SDS011;7516;43.570;1.448;2022-12-07T00:25:39;15.93;;;10.13;;
14847;SDS011;7516;43.570;1.448;2022-12-07T00:28:07;14.87;;;9.87;;
14847;SDS011;7516;43.570;1.448;2022-12-07T00:30:35;13.67;;;9.37;;
14847;SDS011;7516;43.570;1.448;2022-12-07T00:33:03;15.37;;;10.03;;
14847;SDS011;7516;43.570;1.448;2022-12-07T00:35:32;12.07;;;9.00;;
14847;SDS011;7516;43.570;1.448;2022-12-07T00:37:59;12.77;;;8.17;;
14847;SDS011;7516;43.570;1.448;2022-12-07T00:40:27;11.97;;;7.93;;
14847;SDS011;7516;43.570;1.448;2022-12-07T00:42:54;11.97;;;8.20;;
14847;SDS011;7516;43.570;1.448;2022-12-07T00:45:22;14.37;;;8.97;;
14847;SDS011;7516;43.570;1.448;2022-12-07T00:47:50;12.00;;;8.77;;
14847;SDS011;7516;43.570;1.448;2022-12-07T00:50:17;12.37;;;9.37;;
14847;SDS011;7516;43.570;1.448;2022-12-07T00:52:46;13.77;;;9.80;;
14847;SDS011;7516;43.570;1.448;2022-12-07T00:55:13;13.50;;;9.17;;
14847;SDS011;7516;43.570;1.448;2022-12-07T00:57:41;12.77;;;8.07;;
14847;SDS011;7516;43.570;1.448;2022-12-07T01:00:09;9.50;;;7.40;;
14847;SDS011;7516;43.570;1.448;2022-12-07T01:02:36;10.43;;;7.30;;
14847;SDS011;7516;43.570;1.448;2022-12-07T01:05:04;11.33;;;7.80;;
14847;SDS011;7516;43.570;1.448;2022-12-07T01:07:32;9.43;;;7.30;;
14847;SDS011;7516;43.570;1.448;2022-12-07T01:10:01;8.87;;;7.17;;
14847;SDS011;7516;43.570;1.448;2022-12-07T01:12:29;9.40;;;6.93;;
14847;SDS011;7516;43.570;1.448;2022-12-07T01:14:57;10.37;;;6.73;;
14847;SDS011;7516;43.570;1.448;2022-12-07T01:17:24;10.00;;;7.10;;
14847;SDS011;7516;43.570;1.448;2022-12-07T01:19:52;9.50;;;6.70;;
14847;SDS011;7516;43.570;1.448;2022-12-07T01:22:20;10.33;;;6.73;;
14847;SDS011;7516;43.570;1.448;2022-12-07T01:24:48;8.53;;;5.90;;
14847;SDS011;7516;43.570;1.448;2022-12-07T01:27:17;11.57;;;7.30;;
14847;SDS011;7516;43.570;1.448;2022-12-07T01:29:44;14.23;;;9.27;;
14847;SDS011;7516;43.570;1.448;2022-12-07T01:32:12;14.23;;;10.10;;
14847;SDS011;7516;43.570;1.448;2022-12-07T01:34:39;16.53;;;10.60;;
14847;SDS011;7516;43.570;1.448;2022-12-07T01:37:07;16.37;;;9.67;;
14847;SDS011;7516;43.570;1.448;2022-12-07T01:39:34;14.77;;;9.73;;
14847;SDS011;7516;43.570;1.448;2022-12-07T01:42:02;16.03;;;9.97;;
14847;SDS011;7516;43.570;1.448;2022-12-07T01:44:31;16.07;;;10.70;;
14847;SDS011;7516;43.570;1.448;2022-12-07T01:46:59;17.70;;;11.60;;
14847;SDS011;7516;43.570;1.448;2022-12-07T01:49:29;19.60;;;11.93;;
14847;SDS011;7516;43.570;1.448;2022-12-07T01:52:01;17.43;;;12.07;;
14847;SDS011;7516;43.570;1.448;2022-12-07T01:54:37;15.60;;;11.20;;
14847;SDS011;7516;43.570;1.448;2022-12-07T01:57:04;15.10;;;9.87;;
14847;SDS011;7516;43.570;1.448;2022-12-07T01:59:35;14.10;;;9.67;;
14847;SDS011;7516;43.570;1.448;2022-12-07T02:02:05;15.33;;;10.23;;
14847;SDS011;7516;43.570;1.448;2022-12-07T02:04:39;18.60;;;11.40;;
14847;SDS011;7516;43.570;1.448;2022-12-07T02:07:07;14.77;;;10.83;;
14847;SDS011;7516;43.570;1.448;2022-12-07T02:09:35;18.37;;;12.40;;
14847;SDS011;7516;43.570;1.448;2022-12-07T02:12:02;20.10;;;11.73;;
14847;SDS011;7516;43.570;1.448;2022-12-07T02:14:31;15.90;;;12.10;;
14847;SDS011;7516;43.570;1.448;2022-12-07T02:17:03;20.70;;;12.77;;
14847;SDS011;7516;43.570;1.448;2022-12-07T02:25:46;20.23;;;13.10;;
14847;SDS011;7516;43.570;1.448;2022-12-07T02:28:33;19.37;;;13.63;;
14847;SDS011;7516;43.570;1.448;2022-12-07T02:31:06;24.10;;;15.13;;
14847;SDS011;7516;43.570;1.448;2022-12-07T02:33:40;20.73;;;14.23;;
14847;SDS011;7516;43.570;1.448;2022-12-07T02:36:12;23.87;;;15.87;;
14847;SDS011;7516;43.570;1.448;2022-12-07T02:38:45;18.93;;;13.87;;
14847;SDS011;7516;43.570;1.448;2022-12-07T02:41:22;19.73;;;13.70;;
14847;SDS011;7516;43.570;1.448;2022-12-07T02:43:54;20.33;;;13.83;;
14847;SDS011;7516;43.570;1.448;2022-12-07T02:46:27;19.57;;;12.83;;
14847;SDS011;7516;43.570;1.448;2022-12-07T02:48:58;18.67;;;12.50;;
14847;SDS011;7516;43.570;1.448;2022-12-07T02:51:29;17.90;;;12.73;;
14847;SDS011;7516;43.570;1.448;2022-12-07T02:53:58;21.00;;;13.97;;
14847;SDS011;7516;43.570;1.448;2022-12-07T02:56:26;28.10;;;17.37;;
14847;SDS011;7516;43.570;1.448;2022-12-07T02:59:02;28.87;;;18.50;;
14847;SDS011;7516;43.570;1.448;2022-12-07T03:01:39;30.97;;;20.10;;
14847;SDS011;7516;43.570;1.448;2022-12-07T03:04:18;33.43;;;20.30;;
14847;SDS011;7516;43.570;1.448;2022-12-07T03:06:56;29.57;;;20.30;;
14847;SDS011;7516;43.570;1.448;2022-12-07T03:09:32;31.70;;;20.27;;
14847;SDS011;7516;43.570;1.448;2022-12-07T03:12:08;28.37;;;19.60;;
14847;SDS011;7516;43.570;1.448;2022-12-07T03:14:40;29.57;;;18.90;;
14847;SDS011;7516;43.570;1.448;2022-12-07T03:17:17;28.80;;;19.73;;
14847;SDS011;7516;43.570;1.448;2022-12-07T03:19:50;32.63;;;20.30;;
14847;SDS011;7516;43.570;1.448;2022-12-07T03:22:24;29.57;;;18.47;;
14847;SDS011;7516;43.570;1.448;2022-12-07T03:24:57;29.43;;;19.53;;
14847;SDS011;7516;43.570;1.448;2022-12-07T03:27:31;27.70;;;19.97;;
14847;SDS011;7516;43.570;1.448;2022-12-07T03:30:02;29.03;;;19.97;;
14847;SDS011;7516;43.570;1.448;2022-12-07T03:32:35;30.17;;;20.60;;
14847;SDS011;7516;43.570;1.448;2022-12-07T03:35:09;30.23;;;20.70;;
14847;SDS011;7516;43.570;1.448;2022-12-07T03:37:45;29.80;;;20.00;;
14847;SDS011;7516;43.570;1.448;2022-12-07T03:40:16;34.00;;;20.10;;
14847;SDS011;7516;43.570;1.448;2022-12-07T03:42:50;31.13;;;20.50;;
14847;SDS011;7516;43.570;1.448;2022-12-07T03:45:19;29.70;;;19.37;;
14847;SDS011;7516;43.570;1.448;2022-12-07T03:47:54;29.00;;;19.50;;
14847;SDS011;7516;43.570;1.448;2022-12-07T03:50:31;33.50;;;21.33;;
14847;SDS011;7516;43.570;1.448;2022-12-07T03:53:04;32.53;;;21.57;;
14847;SDS011;7516;43.570;1.448;2022-12-07T03:55:40;34.30;;;21.33;;
14847;SDS011;7516;43.570;1.448;2022-12-07T03:58:12;30.80;;;20.70;;
14847;SDS011;7516;43.570;1.448;2022-12-07T04:00:43;33.97;;;21.83;;
14847;SDS011;7516;43.570;1.448;2022-12-07T04:03:12;30.93;;;21.23;;
14847;SDS011;7516;43.570;1.448;2022-12-07T04:05:40;31.37;;;20.03;;
14847;SDS011;7516;43.570;1.448;2022-12-07T04:08:08;29.70;;;20.33;;
14847;SDS011;7516;43.570;1.448;2022-12-07T04:10:36;29.03;;;20.37;;
14847;SDS011;7516;43.570;1.448;2022-12-07T04:13:03;27.60;;;20.03;;
14847;SDS011;7516;43.570;1.448;2022-12-07T04:15:31;29.47;;;19.37;;
14847;SDS011;7516;43.570;1.448;2022-12-07T04:17:59;27.33;;;20.13;;
14847;SDS011;7516;43.570;1.448;2022-12-07T04:20:28;30.33;;;20.30;;
14847;SDS011;7516;43.570;1.448;2022-12-07T04:22:55;33.03;;;21.27;;
14847;SDS011;7516;43.570;1.448;2022-12-07T04:25:23;33.93;;;20.80;;
14847;SDS011;7516;43.570;1.448;2022-12-07T04:27:50;34.53;;;22.23;;
14847;SDS011;7516;43.570;1.448;2022-12-07T04:30:18;36.20;;;23.80;;
14847;SDS011;7516;43.570;1.448;2022-12-07T04:32:46;36.07;;;22.37;;
14847;SDS011;7516;43.570;1.448;2022-12-07T04:35:14;37.43;;;22.93;;
14847;SDS011;7516;43.570;1.448;2022-12-07T04:37:42;33.33;;;22.50;;
14847;SDS011;7516;43.570;1.448;2022-12-07T04:40:10;38.87;;;24.40;;
14847;SDS011;7516;43.570;1.448;2022-12-07T04:42:39;36.77;;;23.00;;
14847;SDS011;7516;43.570;1.448;2022-12-07T04:45:07;33.40;;;21.90;;
14847;SDS011;7516;43.570;1.448;2022-12-07T04:47:35;29.50;;;21.40;;
14847;SDS011;7516;43.570;1.448;2022-12-07T04:50:06;32.23;;;21.07;;
14847;SDS011;7516;43.570;1.448;2022-12-07T04:52:35;33.07;;;21.67;;
14847;SDS011;7516;43.570;1.448;2022-12-07T04:55:08;33.27;;;21.23;;
14847;SDS011;7516;43.570;1.448;2022-12-07T04:57:35;30.63;;;20.90;;
14847;SDS011;7516;43.570;1.448;2022-12-07T05:00:03;31.47;;;20.93;;
14847;SDS011;7516;43.570;1.448;2022-12-07T05:02:31;29.97;;;21.33;;
14847;SDS011;7516;43.570;1.448;2022-12-07T05:04:59;29.20;;;20.37;;
14847;SDS011;7516;43.570;1.448;2022-12-07T05:07:26;30.03;;;19.60;;
14847;SDS011;7516;43.570;1.448;2022-12-07T05:09:54;29.03;;;20.33;;
14847;SDS011;7516;43.570;1.448;2022-12-07T05:12:23;30.77;;;20.60;;
14847;SDS011;7516;43.570;1.448;2022-12-07T05:14:50;28.43;;;19.47;;
14847;SDS011;7516;43.570;1.448;2022-12-07T05:17:18;33.27;;;20.50;;
14847;SDS011;7516;43.570;1.448;2022-12-07T05:19:45;30.20;;;19.73;;
14847;SDS011;7516;43.570;1.448;2022-12-07T05:22:13;29.80;;;20.13;;
14847;SDS011;7516;43.570;1.448;2022-12-07T05:24:40;28.40;;;19.90;;
14847;SDS011;7516;43.570;1.448;2022-12-07T05:27:08;31.60;;;20.50;;
14847;SDS011;7516;43.570;1.448;2022-12-07T05:29:37;32.07;;;20.57;;
14847;SDS011;7516;43.570;1.448;2022-12-07T05:32:04;26.83;;;19.30;;
14847;SDS011;7516;43.570;1.448;2022-12-07T05:34:32;30.37;;;19.47;;
14847;SDS011;7516;43.570;1.448;2022-12-07T05:36:59;31.20;;;19.53;;
14847;SDS011;7516;43.570;1.448;2022-12-07T05:39:27;29.70;;;18.57;;
14847;SDS011;7516;43.570;1.448;2022-12-07T05:41:55;27.17;;;18.73;;
14847;SDS011;7516;43.570;1.448;2022-12-07T05:44:43;25.47;;;17.73;;
14847;SDS011;7516;43.570;1.448;2022-12-07T05:47:12;26.40;;;18.10;;
14847;SDS011;7516;43.570;1.448;2022-12-07T05:49:40;25.43;;;18.53;;
14847;SDS011;7516;43.570;1.448;2022-12-07T05:52:08;26.13;;;18.60;;
14847;SDS011;7516;43.570;1.448;2022-12-07T05:54:36;27.07;;;18.20;;
14847;SDS011;7516;43.570;1.448;2022-12-07T05:57:03;27.03;;;18.80;;
14847;SDS011;7516;43.570;1.448;2022-12-07T05:59:31;25.73;;;18.30;;
14847;SDS011;7516;43.570;1.448;2022-12-07T06:01:59;27.97;;;18.73;;
14847;SDS011;7516;43.570;1.448;2022-12-07T06:04:29;26.07;;;18.10;;
14847;SDS011;7516;43.570;1.448;2022-12-07T06:06:58;24.87;;;17.73;;
14847;SDS011;7516;43.570;1.448;2022-12-07T06:09:26;26.67;;;17.13;;
14847;SDS011;7516;43.570;1.448;2022-12-07T06:11:54;25.53;;;17.53;;
14847;SDS011;7516;43.570;1.448;2022-12-07T06:14:40;26.20;;;17.90;;
14847;SDS011;7516;43.570;1.448;2022-12-07T06:17:09;25.57;;;17.23;;
14847;SDS011;7516;43.570;1.448;2022-12-07T06:19:38;30.57;;;17.80;;
14847;SDS011;7516;43.570;1.448;2022-12-07T06:22:06;25.80;;;17.50;;
14847;SDS011;7516;43.570;1.448;2022-12-07T06:24:36;24.40;;;17.50;;
14847;SDS011;7516;43.570;1.448;2022-12-07T06:27:05;26.47;;;18.07;;
14847;SDS011;7516;43.570;1.448;2022-12-07T06:29:33;27.23;;;19.03;;
14847;SDS011;7516;43.570;1.448;2022-12-07T06:32:00;29.63;;;19.50;;
14847;SDS011;7516;43.570;1.448;2022-12-07T06:34:31;28.63;;;20.77;;
14847;SDS011;7516;43.570;1.448;2022-12-07T06:36:58;27.87;;;18.97;;
14847;SDS011;7516;43.570;1.448;2022-12-07T06:39:27;27.17;;;17.90;;
14847;SDS011;7516;43.570;1.448;2022-12-07T06:41:55;27.50;;;19.83;;
14847;SDS011;7516;43.570;1.448;2022-12-07T06:44:23;24.23;;;18.20;;
14847;SDS011;7516;43.570;1.448;2022-12-07T06:46:51;23.43;;;17.53;;
14847;SDS011;7516;43.570;1.448;2022-12-07T06:49:19;24.63;;;16.07;;
14847;SDS011;7516;43.570;1.448;2022-12-07T06:51:48;24.47;;;16.97;;
14847;SDS011;7516;43.570;1.448;2022-12-07T06:54:16;26.30;;;16.97;;
14847;SDS011;7516;43.570;1.448;2022-12-07T06:56:44;25.93;;;17.23;;
14847;SDS011;7516;43.570;1.448;2022-12-07T06:59:11;24.50;;;17.37;;
14847;SDS011;7516;43.570;1.448;2022-12-07T07:01:39;22.73;;;17.33;;
14847;SDS011;7516;43.570;1.448;2022-12-07T07:04:06;22.27;;;17.03;;
14847;SDS011;7516;43.570;1.448;2022-12-07T07:06:34;24.20;;;17.23;;
14847;SDS011;7516;43.570;1.448;2022-12-07T07:09:03;25.13;;;17.43;;
14847;SDS011;7516;43.570;1.448;2022-12-07T07:11:30;24.43;;;16.83;;
14847;SDS011;7516;43.570;1.448;2022-12-07T07:13:58;23.97;;;17.47;;
14847;SDS011;7516;43.570;1.448;2022-12-07T07:16:27;23.30;;;16.90;;
14847;SDS011;7516;43.570;1.448;2022-12-07T07:18:56;23.57;;;17.13;;
14847;SDS011;7516;43.570;1.448;2022-12-07T07:21:24;25.53;;;17.07;;
14847;SDS011;7516;43.570;1.448;2022-12-07T07:23:51;22.83;;;16.27;;
14847;SDS011;7516;43.570;1.448;2022-12-07T07:26:20;21.33;;;16.80;;
14847;SDS011;7516;43.570;1.448;2022-12-07T07:28:48;25.10;;;16.63;;
14847;SDS011;7516;43.570;1.448;2022-12-07T07:31:15;24.50;;;16.67;;
14847;SDS011;7516;43.570;1.448;2022-12-07T07:33:43;23.70;;;17.13;;
14847;SDS011;7516;43.570;1.448;2022-12-07T07:36:11;22.07;;;16.77;;
14847;SDS011;7516;43.570;1.448;2022-12-07T07:38:39;24.53;;;17.57;;
14847;SDS011;7516;43.570;1.448;2022-12-07T07:41:06;24.70;;;16.97;;
14847;SDS011;7516;43.570;1.448;2022-12-07T07:43:35;22.13;;;17.00;;
14847;SDS011;7516;43.570;1.448;2022-12-07T07:46:03;25.03;;;17.67;;
14847;SDS011;7516;43.570;1.448;2022-12-07T07:48:30;25.37;;;17.13;;
14847;SDS011;7516;43.570;1.448;2022-12-07T07:50:58;24.20;;;17.17;;
14847;SDS011;7516;43.570;1.448;2022-12-07T07:53:25;26.77;;;17.30;;
14847;SDS011;7516;43.570;1.448;2022-12-07T07:55:53;27.10;;;18.30;;
14847;SDS011;7516;43.570;1.448;2022-12-07T07:58:21;27.07;;;17.20;;
14847;SDS011;7516;43.570;1.448;2022-12-07T08:00:50;27.27;;;18.00;;
14847;SDS011;7516;43.570;1.448;2022-12-07T08:03:18;23.93;;;17.20;;
14847;SDS011;7516;43.570;1.448;2022-12-07T08:05:45;27.13;;;17.87;;
14847;SDS011;7516;43.570;1.448;2022-12-07T08:08:13;26.93;;;17.40;;
14847;SDS011;7516;43.570;1.448;2022-12-07T08:10:40;23.03;;;16.57;;
14847;SDS011;7516;43.570;1.448;2022-12-07T08:13:08;25.10;;;17.27;;
14847;SDS011;7516;43.570;1.448;2022-12-07T08:15:40;25.13;;;17.37;;
14847;SDS011;7516;43.570;1.448;2022-12-07T08:18:10;24.70;;;17.33;;
14847;SDS011;7516;43.570;1.448;2022-12-07T08:20:38;26.30;;;19.00;;
14847;SDS011;7516;43.570;1.448;2022-12-07T08:23:08;24.37;;;18.10;;
14847;SDS011;7516;43.570;1.448;2022-12-07T08:25:36;24.27;;;18.47;;
14847;SDS011;7516;43.570;1.448;2022-12-07T08:28:04;28.03;;;19.00;;
14847;SDS011;7516;43.570;1.448;2022-12-07T08:30:32;25.03;;;18.20;;
14847;SDS011;7516;43.570;1.448;2022-12-07T08:33:00;28.03;;;19.40;;
14847;SDS011;7516;43.570;1.448;2022-12-07T08:35:28;31.87;;;20.20;;
14847;SDS011;7516;43.570;1.448;2022-12-07T08:37:58;27.37;;;19.23;;
14847;SDS011;7516;43.570;1.448;2022-12-07T08:40:27;32.60;;;20.70;;
14847;SDS011;7516;43.570;1.448;2022-12-07T08:42:55;32.23;;;20.23;;
14847;SDS011;7516;43.570;1.448;2022-12-07T08:45:22;27.07;;;19.40;;
14847;SDS011;7516;43.570;1.448;2022-12-07T08:47:51;33.03;;;20.50;;
14847;SDS011;7516;43.570;1.448;2022-12-07T08:50:21;33.30;;;20.77;;
14847;SDS011;7516;43.570;1.448;2022-12-07T08:52:51;32.13;;;21.63;;
14847;SDS011;7516;43.570;1.448;2022-12-07T08:55:21;30.60;;;21.87;;
14847;SDS011;7516;43.570;1.448;2022-12-07T08:57:49;33.43;;;21.57;;
14847;SDS011;7516;43.570;1.448;2022-12-07T09:00:17;33.23;;;21.90;;
14847;SDS011;7516;43.570;1.448;2022-12-07T09:02:45;34.07;;;22.07;;
14847;SDS011;7516;43.570;1.448;2022-12-07T09:05:13;33.23;;;22.60;;
14847;SDS011;7516;43.570;1.448;2022-12-07T09:07:41;30.73;;;21.07;;
14847;SDS011;7516;43.570;1.448;2022-12-07T09:10:12;32.57;;;21.67;;
14847;SDS011;7516;43.570;1.448;2022-12-07T09:12:39;35.23;;;21.03;;
14847;SDS011;7516;43.570;1.448;2022-12-07T09:15:07;29.67;;;21.10;;
14847;SDS011;7516;43.570;1.448;2022-12-07T09:17:35;33.23;;;21.13;;
14847;SDS011;7516;43.570;1.448;2022-12-07T09:20:03;30.63;;;20.97;;
14847;SDS011;7516;43.570;1.448;2022-12-07T09:22:32;35.33;;;21.77;;
14847;SDS011;7516;43.570;1.448;2022-12-07T09:24:59;32.17;;;21.17;;
14847;SDS011;7516;43.570;1.448;2022-12-07T09:27:28;29.57;;;21.53;;
14847;SDS011;7516;43.570;1.448;2022-12-07T09:29:56;31.23;;;21.93;;
14847;SDS011;7516;43.570;1.448;2022-12-07T09:32:24;33.30;;;22.37;;
14847;SDS011;7516;43.570;1.448;2022-12-07T09:34:51;33.80;;;22.50;;
14847;SDS011;7516;43.570;1.448;2022-12-07T09:37:19;27.60;;;20.60;;
14847;SDS011;7516;43.570;1.448;2022-12-07T09:39:46;30.17;;;19.77;;
14847;SDS011;7516;43.570;1.448;2022-12-07T09:42:18;27.80;;;18.83;;
14847;SDS011;7516;43.570;1.448;2022-12-07T09:44:55;27.53;;;18.90;;
14847;SDS011;7516;43.570;1.448;2022-12-07T09:47:24;27.90;;;19.20;;
14847;SDS011;7516;43.570;1.448;2022-12-07T09:49:52;25.47;;;17.70;;
14847;SDS011;7516;43.570;1.448;2022-12-07T09:52:25;26.13;;;16.77;;
14847;SDS011;7516;43.570;1.448;2022-12-07T09:54:54;30.70;;;18.67;;
14847;SDS011;7516;43.570;1.448;2022-12-07T09:57:25;24.97;;;17.13;;
14847;SDS011;7516;43.570;1.448;2022-12-07T09:59:59;24.03;;;18.43;;
14847;SDS011;7516;43.570;1.448;2022-12-07T10:02:34;24.43;;;17.53;;
14847;SDS011;7516;43.570;1.448;2022-12-07T10:05:04;22.87;;;16.13;;
14847;SDS011;7516;43.570;1.448;2022-12-07T10:07:32;22.27;;;16.27;;
14847;SDS011;7516;43.570;1.448;2022-12-07T10:10:02;23.70;;;16.10;;
14847;SDS011;7516;43.570;1.448;2022-12-07T10:12:39;24.17;;;16.67;;
14847;SDS011;7516;43.570;1.448;2022-12-07T10:15:22;30.10;;;16.40;;
14847;SDS011;7516;43.570;1.448;2022-12-07T10:17:51;19.43;;;14.00;;
14847;SDS011;7516;43.570;1.448;2022-12-07T10:20:20;22.83;;;14.33;;
14847;SDS011;7516;43.570;1.448;2022-12-07T10:22:57;18.90;;;14.57;;
14847;SDS011;7516;43.570;1.448;2022-12-07T10:25:29;16.37;;;11.63;;
14847;SDS011;7516;43.570;1.448;2022-12-07T10:28:03;21.97;;;14.20;;
14847;SDS011;7516;43.570;1.448;2022-12-07T10:30:51;18.90;;;14.03;;
14847;SDS011;7516;43.570;1.448;2022-12-07T10:33:29;22.73;;;14.93;;
14847;SDS011;7516;43.570;1.448;2022-12-07T10:35:59;20.87;;;14.93;;
14847;SDS011;7516;43.570;1.448;2022-12-07T10:38:43;21.30;;;15.07;;
14847;SDS011;7516;43.570;1.448;2022-12-07T10:41:13;22.47;;;15.40;;
14847;SDS011;7516;43.570;1.448;2022-12-07T10:43:49;21.43;;;13.93;;
14847;SDS011;7516;43.570;1.448;2022-12-07T10:46:29;19.67;;;14.37;;
14847;SDS011;7516;43.570;1.448;2022-12-07T10:49:18;22.37;;;14.43;;
14847;SDS011;7516;43.570;1.448;2022-12-07T10:52:09;17.40;;;13.57;;
14847;SDS011;7516;43.570;1.448;2022-12-07T10:54:49;21.67;;;13.43;;
14847;SDS011;7516;43.570;1.448;2022-12-07T10:57:30;24.33;;;13.83;;
14847;SDS011;7516;43.570;1.448;2022-12-07T11:00:13;17.13;;;13.17;;
14847;SDS011;7516;43.570;1.448;2022-12-07T11:02:52;17.83;;;13.17;;
14847;SDS011;7516;43.570;1.448;2022-12-07T11:05:45;19.93;;;14.37;;
14847;SDS011;7516;43.570;1.448;2022-12-07T11:08:19;19.47;;;13.60;;
14847;SDS011;7516;43.570;1.448;2022-12-07T11:11:01;18.20;;;14.13;;
14847;SDS011;7516;43.570;1.448;2022-12-07T11:13:37;21.17;;;13.90;;
14847;SDS011;7516;43.570;1.448;2022-12-07T11:19:11;18.67;;;11.60;;
14847;SDS011;7516;43.570;1.448;2022-12-07T11:21:52;15.07;;;10.73;;
14847;SDS011;7516;43.570;1.448;2022-12-07T11:24:24;20.63;;;13.10;;
14847;SDS011;7516;43.570;1.448;2022-12-07T11:26:59;22.03;;;13.60;;
14847;SDS011;7516;43.570;1.448;2022-12-07T11:29:48;20.00;;;14.57;;
14847;SDS011;7516;43.570;1.448;2022-12-07T11:32:32;18.97;;;13.43;;
14847;SDS011;7516;43.570;1.448;2022-12-07T11:35:11;19.77;;;14.00;;
14847;SDS011;7516;43.570;1.448;2022-12-07T11:37:46;18.60;;;13.33;;
14847;SDS011;7516;43.570;1.448;2022-12-07T11:40:17;18.60;;;13.37;;
14847;SDS011;7516;43.570;1.448;2022-12-07T11:42:49;18.93;;;13.17;;
14847;SDS011;7516;43.570;1.448;2022-12-07T11:45:25;17.47;;;13.83;;
14847;SDS011;7516;43.570;1.448;2022-12-07T11:47:56;17.17;;;13.40;;
14847;SDS011;7516;43.570;1.448;2022-12-07T11:50:32;12.90;;;9.17;;
14847;SDS011;7516;43.570;1.448;2022-12-07T11:53:03;16.40;;;10.60;;
14847;SDS011;7516;43.570;1.448;2022-12-07T11:55:42;12.83;;;8.33;;
14847;SDS011;7516;43.570;1.448;2022-12-07T12:01:11;12.67;;;8.57;;
14847;SDS011;7516;43.570;1.448;2022-12-07T12:03:45;11.90;;;8.23;;
14847;SDS011;7516;43.570;1.448;2022-12-07T12:06:16;15.03;;;9.70;;
14847;SDS011;7516;43.570;1.448;2022-12-07T12:08:46;14.80;;;9.43;;
14847;SDS011;7516;43.570;1.448;2022-12-07T12:11:19;12.27;;;9.63;;
14847;SDS011;7516;43.570;1.448;2022-12-07T12:14:10;12.07;;;9.50;;
14847;SDS011;7516;43.570;1.448;2022-12-07T12:16:56;11.83;;;9.13;;
14847;SDS011;7516;43.570;1.448;2022-12-07T12:19:57;15.90;;;9.60;;
14847;SDS011;7516;43.570;1.448;2022-12-07T12:22:32;12.37;;;9.00;;
14847;SDS011;7516;43.570;1.448;2022-12-07T12:25:04;11.20;;;8.70;;
14847;SDS011;7516;43.570;1.448;2022-12-07T12:27:34;12.03;;;9.40;;
14847;SDS011;7516;43.570;1.448;2022-12-07T12:30:05;11.53;;;8.87;;
14847;SDS011;7516;43.570;1.448;2022-12-07T12:32:51;11.60;;;9.30;;
14847;SDS011;7516;43.570;1.448;2022-12-07T12:38:24;15.30;;;8.70;;
14847;SDS011;7516;43.570;1.448;2022-12-07T12:41:01;11.70;;;8.90;;
14847;SDS011;7516;43.570;1.448;2022-12-07T12:43:40;10.80;;;8.23;;
14847;SDS011;7516;43.570;1.448;2022-12-07T12:55:49;11.73;;;7.30;;
14847;SDS011;7516;43.570;1.448;2022-12-07T12:58:44;10.33;;;7.37;;
14847;SDS011;7516;43.570;1.448;2022-12-07T13:01:36;12.53;;;7.13;;
14847;SDS011;7516;43.570;1.448;2022-12-07T13:04:14;9.00;;;6.70;;
14847;SDS011;7516;43.570;1.448;2022-12-07T13:07:02;9.93;;;6.83;;
14847;SDS011;7516;43.570;1.448;2022-12-07T13:09:31;9.23;;;7.03;;
14847;SDS011;7516;43.570;1.448;2022-12-07T13:12:03;10.80;;;7.40;;
14847;SDS011;7516;43.570;1.448;2022-12-07T13:23:11;8.10;;;6.90;;
14847;SDS011;7516;43.570;1.448;2022-12-07T13:25:45;11.40;;;7.37;;
14847;SDS011;7516;43.570;1.448;2022-12-07T13:28:19;10.83;;;7.30;;
14847;SDS011;7516;43.570;1.448;2022-12-07T13:30:58;9.67;;;6.90;;
14847;SDS011;7516;43.570;1.448;2022-12-07T13:33:38;8.97;;;7.47;;
14847;SDS011;7516;43.570;1.448;2022-12-07T13:36:10;9.57;;;7.10;;
14847;SDS011;7516;43.570;1.448;2022-12-07T13:38:48;9.03;;;6.90;;
14847;SDS011;7516;43.570;1.448;2022-12-07T13:41:18;9.43;;;6.97;;
14847;SDS011;7516;43.570;1.448;2022-12-07T13:43:52;10.23;;;7.43;;
14847;SDS011;7516;43.570;1.448;2022-12-07T13:46:35;8.97;;;7.50;;
14847;SDS011;7516;43.570;1.448;2022-12-07T13:49:17;10.50;;;7.10;;
14847;SDS011;7516;43.570;1.448;2022-12-07T13:51:46;11.47;;;7.47;;
14847;SDS011;7516;43.570;1.448;2022-12-07T13:54:14;14.83;;;7.77;;
14847;SDS011;7516;43.570;1.448;2022-12-07T13:56:43;14.20;;;7.57;;
14847;SDS011;7516;43.570;1.448;2022-12-07T13:59:16;9.50;;;6.80;;
14847;SDS011;7516;43.570;1.448;2022-12-07T14:01:46;8.53;;;6.90;;
14847;SDS011;7516;43.570;1.448;2022-12-07T14:07:15;8.03;;;6.10;;
14847;SDS011;7516;43.570;1.448;2022-12-07T14:09:53;9.97;;;6.63;;
14847;SDS011;7516;43.570;1.448;2022-12-07T14:12:22;8.13;;;5.90;;
14847;SDS011;7516;43.570;1.448;2022-12-07T14:14:51;10.43;;;6.70;;
14847;SDS011;7516;43.570;1.448;2022-12-07T14:17:21;8.60;;;5.87;;
14847;SDS011;7516;43.570;1.448;2022-12-07T14:19:50;9.87;;;6.33;;
14847;SDS011;7516;43.570;1.448;2022-12-07T14:22:22;13.07;;;6.50;;
14847;SDS011;7516;43.570;1.448;2022-12-07T14:24:58;8.83;;;6.03;;
14847;SDS011;7516;43.570;1.448;2022-12-07T14:27:47;8.77;;;6.30;;
14847;SDS011;7516;43.570;1.448;2022-12-07T14:30:19;12.17;;;6.20;;
14847;SDS011;7516;43.570;1.448;2022-12-07T14:32:48;6.40;;;5.50;;
14847;SDS011;7516;43.570;1.448;2022-12-07T14:35:19;8.07;;;5.60;;
14847;SDS011;7516;43.570;1.448;2022-12-07T14:37:47;11.13;;;5.70;;
14847;SDS011;7516;43.570;1.448;2022-12-07T14:40:16;10.40;;;6.43;;
14847;SDS011;7516;43.570;1.448;2022-12-07T14:42:46;8.07;;;6.00;;
14847;SDS011;7516;43.570;1.448;2022-12-07T14:45:17;10.03;;;6.10;;
14847;SDS011;7516;43.570;1.448;2022-12-07T14:47:48;8.60;;;5.97;;
14847;SDS011;7516;43.570;1.448;2022-12-07T14:50:16;7.83;;;5.33;;
14847;SDS011;7516;43.570;1.448;2022-12-07T14:52:45;6.87;;;5.07;;
14847;SDS011;7516;43.570;1.448;2022-12-07T14:55:20;7.00;;;5.07;;
14847;SDS011;7516;43.570;1.448;2022-12-07T14:57:51;7.50;;;5.53;;
14847;SDS011;7516;43.570;1.448;2022-12-07T15:00:21;7.20;;;5.70;;
14847;SDS011;7516;43.570;1.448;2022-12-07T15:02:50;9.70;;;5.90;;
14847;SDS011;7516;43.570;1.448;2022-12-07T15:05:18;12.87;;;7.50;;
14847;SDS011;7516;43.570;1.448;2022-12-07T15:07:46;8.07;;;6.10;;
14847;SDS011;7516;43.570;1.448;2022-12-07T15:10:15;9.37;;;6.83;;
14847;SDS011;7516;43.570;1.448;2022-12-07T15:12:44;12.03;;;7.30;;
14847;SDS011;7516;43.570;1.448;2022-12-07T15:15:11;9.33;;;6.83;;
14847;SDS011;7516;43.570;1.448;2022-12-07T15:17:41;11.60;;;8.47;;
14847;SDS011;7516;43.570;1.448;2022-12-07T15:20:09;9.57;;;7.07;;
14847;SDS011;7516;43.570;1.448;2022-12-07T15:22:41;13.53;;;7.20;;
14847;SDS011;7516;43.570;1.448;2022-12-07T15:25:09;8.53;;;6.90;;
14847;SDS011;7516;43.570;1.448;2022-12-07T15:27:40;8.60;;;6.50;;
14847;SDS011;7516;43.570;1.448;2022-12-07T15:30:08;10.00;;;7.30;;
14847;SDS011;7516;43.570;1.448;2022-12-07T15:32:35;9.53;;;6.90;;
14847;SDS011;7516;43.570;1.448;2022-12-07T15:35:05;9.57;;;6.80;;
14847;SDS011;7516;43.570;1.448;2022-12-07T15:37:33;10.87;;;7.23;;
14847;SDS011;7516;43.570;1.448;2022-12-07T15:40:00;9.47;;;7.23;;